Time;durP1;ratioP1;P1;durP2;ratioP2;P2;SDS_P1;SDS_P2;PMS_P1;PMS_P2;Temp;Humidity;BMP_temperature;BMP_pressure;BME280_temperature;BME280_humidity;BME280_pressure;Samples;Min_cycle;Max_cycle;Signal;HPM_P1;HPM_P2
2022/01/26 00:06:48;;;;;;;75.10;26.85;;;3.80;99.90;;;;;;5049659;28;20147;-67
2022/01/26 00:09:14;;;;;;;81.53;29.27;;;3.90;99.90;;;;;;5050639;28;20044;-68
2022/01/26 00:11:40;;;;;;;81.22;28.48;;;3.90;99.90;;;;;;5049130;28;20056;-67
2022/01/26 00:14:11;;;;;;;80.50;29.90;;;3.70;99.90;;;;;;5048645;28;20060;-67
2022/01/26 00:16:44;;;;;;;81.30;27.30;;;3.70;99.90;;;;;;5049057;28;20052;-67
2022/01/26 00:19:26;;;;;;;78.47;28.73;;;3.80;99.90;;;;;;5048691;28;20052;-67
2022/01/26 00:21:53;;;;;;;84.97;28.70;;;3.70;99.90;;;;;;5051957;28;20576;-67
2022/01/26 00:27:35;;;;;;;88.72;30.95;;;3.70;99.90;;;;;;5048427;28;20057;-69
2022/01/26 00:31:12;;;;;;;82.65;29.15;;;3.70;99.90;;;;;;5048083;28;20049;-67
2022/01/26 00:38:35;;;;;;;84.68;29.25;;;3.70;99.90;;;;;;5043941;28;20056;-67
2022/01/26 00:41:05;;;;;;;;;;;3.70;99.90;;;;;;5049692;28;20063;-67
2022/01/26 00:43:31;;;;;;;76.70;25.58;;;3.70;99.90;;;;;;5047890;28;19921;-67
2022/01/26 00:45:59;;;;;;;77.75;29.20;;;3.70;99.90;;;;;;5049743;28;20045;-67
2022/01/26 00:48:27;;;;;;;80.18;28.17;;;3.70;99.90;;;;;;5039249;28;20490;-67
2022/01/26 00:50:53;;;;;;;89.32;30.30;;;3.70;99.90;;;;;;5047957;28;20458;-67
2022/01/26 00:53:24;;;;;;;88.72;31.05;;;3.70;99.90;;;;;;5048813;28;20049;-67
2022/01/26 00:55:50;;;;;;;90.03;29.40;;;3.60;99.90;;;;;;5049140;28;20124;-68
2022/01/26 00:58:16;;;;;;;91.45;31.27;;;3.60;99.90;;;;;;5047333;28;20151;-67
2022/01/26 01:00:42;;;;;;;89.25;30.85;;;3.60;99.90;;;;;;5047086;28;20465;-67
2022/01/26 01:03:07;;;;;;;82.88;27.15;;;3.60;99.90;;;;;;5047647;28;20041;-68
2022/01/26 01:05:39;;;;;;;83.18;31.80;;;3.60;99.90;;;;;;5064686;28;20051;-68
2022/01/26 01:08:10;;;;;;;87.63;30.38;;;3.40;99.90;;;;;;5048036;28;20037;-67
2022/01/26 01:10:36;;;;;;;92.78;31.52;;;3.60;99.90;;;;;;5047681;28;20118;-68
2022/01/26 01:13:02;;;;;;;84.22;30.13;;;3.60;99.90;;;;;;5048235;28;20071;-67
2022/01/26 01:15:30;;;;;;;84.32;31.15;;;3.60;99.90;;;;;;5048864;28;20041;-68
2022/01/26 01:18:15;;;;;;;81.50;29.95;;;3.60;99.90;;;;;;5048516;28;20087;-67
2022/01/26 01:21:02;;;;;;;82.25;28.75;;;3.60;99.90;;;;;;5049812;28;20128;-67
2022/01/26 01:26:26;;;;;;;86.88;30.52;;;3.60;99.90;;;;;;5051697;28;20304;-67
2022/01/26 01:31:59;;;;;;;85.72;29.98;;;3.10;99.90;;;;;;5050710;28;20052;-67
2022/01/26 01:34:18;;;;;;;81.70;29.63;;;3.60;99.90;;;;;;5040931;28;20041;-67
2022/01/26 01:36:47;;;;;;;81.70;29.65;;;3.60;99.90;;;;;;5052249;28;20069;-67
2022/01/26 01:39:13;;;;;;;86.53;29.92;;;3.60;99.90;;;;;;5050185;28;20409;-67
2022/01/26 01:41:41;;;;;;;81.50;28.80;;;3.50;99.90;;;;;;5046571;28;20056;-67
2022/01/26 01:44:08;;;;;;;77.65;27.52;;;3.60;99.90;;;;;;5046292;28;20387;-67
2022/01/26 01:46:34;;;;;;;85.45;30.52;;;3.50;99.90;;;;;;5048627;28;20037;-68
2022/01/26 01:49:03;;;;;;;81.45;29.42;;;3.50;99.90;;;;;;5033294;28;20104;-67
2022/01/26 01:51:33;;;;;;;84.68;29.55;;;3.50;99.90;;;;;;5048098;28;20039;-68
2022/01/26 01:53:59;;;;;;;82.63;27.15;;;3.60;99.90;;;;;;5047685;28;20052;-68
2022/01/26 01:56:26;;;;;;;77.75;28.38;;;3.60;99.90;;;;;;5046282;28;20055;-68
2022/01/26 01:58:53;;;;;;;77.10;27.80;;;3.50;99.90;;;;;;5040665;28;20494;-68
2022/01/26 02:01:20;;;;;;;80.07;27.92;;;3.50;99.90;;;;;;5044037;28;20041;-67
2022/01/26 02:03:46;;;;;;;80.05;28.30;;;3.50;99.90;;;;;;5046738;28;20045;-67
2022/01/26 02:06:11;;;;;;;85.00;29.65;;;3.50;99.90;;;;;;5048456;28;20064;-67
2022/01/26 02:08:39;;;;;;;83.10;28.33;;;3.60;99.90;;;;;;5046799;28;20064;-68
2022/01/26 02:11:07;;;;;;;77.57;27.70;;;3.50;99.90;;;;;;5046445;28;20045;-68
2022/01/26 02:13:40;;;;;;;82.75;28.98;;;3.60;99.90;;;;;;5047132;28;20037;-68
2022/01/26 02:16:32;;;;;;;88.35;30.08;;;3.60;99.90;;;;;;5047680;28;20049;-68
2022/01/26 02:21:54;;;;;;;82.68;28.58;;;3.50;99.90;;;;;;5048801;28;20045;-67
2022/01/26 02:56:46;;;;;;;81.13;27.65;;;3.50;99.90;;;;;;5050672;28;20057;-68
2022/01/26 02:59:36;;;;;;;86.70;30.27;;;3.50;99.90;;;;;;5051417;28;20174;-67
2022/01/26 03:02:04;;;;;;;82.25;29.85;;;3.50;99.90;;;;;;5049795;28;20505;-67
2022/01/26 03:07:21;;;;;;;89.65;30.20;;;3.50;99.90;;;;;;5051515;28;20053;-67
2022/01/26 03:09:58;;;;;;;83.93;29.75;;;3.50;99.90;;;;;;5050462;28;20543;-68
2022/01/26 03:12:32;;;;;;;83.43;30.65;;;3.50;99.90;;;;;;5049730;28;20041;-67
2022/01/26 03:15:07;;;;;;;79.05;29.58;;;3.60;99.90;;;;;;5035835;28;20045;-68
2022/01/26 03:18:00;;;;;;;93.18;33.03;;;3.50;99.90;;;;;;5034755;28;20049;-67
2022/01/26 03:20:24;;;;;;;87.70;31.40;;;3.50;99.90;;;;;;5047176;28;20466;-67
2022/01/26 03:28:38;;;;;;;86.32;30.90;;;3.50;99.90;;;;;;5050221;28;20057;-67
2022/01/26 03:36:16;;;;;;;86.10;30.30;;;3.40;99.90;;;;;;5051252;28;20080;-67
2022/01/26 03:38:44;;;;;;;90.28;31.38;;;3.40;99.90;;;;;;5050118;28;20521;-67
2022/01/26 03:41:21;;;;;;;81.70;31.02;;;3.40;99.90;;;;;;5049475;28;20092;-67
2022/01/26 03:43:46;;;;;;;86.03;31.20;;;4.10;99.90;;;;;;5033860;28;20473;-67
2022/01/26 03:46:12;;;;;;;82.30;30.33;;;3.40;99.90;;;;;;5053235;28;20052;-67
2022/01/26 03:48:38;;;;;;;80.60;29.55;;;3.50;99.90;;;;;;5031979;28;20059;-67
2022/01/26 03:51:04;;;;;;;83.55;30.17;;;3.50;99.90;;;;;;5049152;28;20138;-67
2022/01/26 03:53:30;;;;;;;61.10;23.35;;;3.40;99.90;;;;;;5050176;28;20049;-67
2022/01/26 03:55:55;;;;;;;80.85;29.90;;;3.50;99.90;;;;;;5050194;28;20045;-66
2022/01/26 03:58:21;;;;;;;81.60;29.73;;;3.50;99.90;;;;;;5046230;28;20063;-67
2022/01/26 04:00:47;;;;;;;78.22;29.17;;;3.50;99.90;;;;;;5042746;28;20467;-66
2022/01/26 04:03:13;;;;;;;76.93;26.63;;;3.50;99.90;;;;;;5049016;28;20501;-66
2022/01/26 04:05:38;;;;;;;81.85;28.10;;;3.50;99.90;;;;;;5050580;28;20044;-67
2022/01/26 04:08:07;;;;;;;77.05;27.50;;;3.60;99.90;;;;;;5053164;28;20041;-67
2022/01/26 04:10:51;;;;;;;77.65;29.20;;;3.50;99.90;;;;;;5048880;28;20045;-66
2022/01/26 04:13:17;;;;;;;73.60;27.20;;;3.90;99.90;;;;;;5049869;28;20142;-67
2022/01/26 04:15:42;;;;;;;71.43;27.23;;;3.40;99.90;;;;;;5032751;28;20083;-67
2022/01/26 04:18:13;;;;;;;77.18;27.13;;;3.40;99.90;;;;;;5047544;28;20044;-67
2022/01/26 04:20:43;;;;;;;76.05;27.83;;;3.40;99.90;;;;;;5049350;28;20040;-67
2022/01/26 04:25:54;;;;;;;72.53;27.27;;;3.40;99.90;;;;;;5047713;28;20053;-67
2022/01/26 04:28:32;;;;;;;66.18;22.92;;;3.40;99.90;;;;;;5049652;28;20124;-67
2022/01/26 04:30:58;;;;;;;70.63;28.20;;;3.40;99.90;;;;;;5038424;28;20049;-67
2022/01/26 04:33:24;;;;;;;72.65;27.30;;;3.40;99.90;;;;;;5044265;28;20125;-67
2022/01/26 04:35:50;;;;;;;65.47;25.88;;;3.40;99.90;;;;;;5049875;28;20116;-68
2022/01/26 04:38:32;;;;;;;70.32;26.05;;;3.30;99.90;;;;;;5049911;28;20032;-67
2022/01/26 04:43:42;;;;;;;68.35;25.25;;;3.30;99.90;;;;;;5049446;28;20068;-66
2022/01/26 04:46:08;;;;;;;70.57;26.85;;;3.40;99.90;;;;;;5048891;28;20047;-69
2022/01/26 04:48:34;;;;;;;68.40;25.45;;;3.30;99.90;;;;;;5049078;28;20120;-67
2022/01/26 04:50:59;;;;;;;74.95;26.88;;;3.30;99.90;;;;;;5048175;28;20255;-67
2022/01/26 04:53:25;;;;;;;63.90;25.60;;;3.30;99.90;;;;;;5044768;28;20500;-67
2022/01/26 04:55:52;;;;;;;64.80;25.23;;;3.30;99.90;;;;;;5047608;28;20131;-67
2022/01/26 04:58:18;;;;;;;68.75;25.33;;;3.30;99.90;;;;;;5049440;28;20373;-67
2022/01/26 05:00:43;;;;;;;76.35;23.92;;;3.30;99.90;;;;;;5048366;28;20041;-67
2022/01/26 05:03:09;;;;;;;68.65;25.60;;;3.30;99.90;;;;;;5047397;28;20984;-67
2022/01/26 05:05:35;;;;;;;67.68;26.15;;;3.20;99.90;;;;;;5048058;28;20067;-67
2022/01/26 05:08:00;;;;;;;67.10;23.20;;;3.20;99.90;;;;;;5047323;28;20093;-67
2022/01/26 05:10:26;;;;;;;68.70;25.50;;;3.20;99.90;;;;;;5051270;28;20049;-67
2022/01/26 05:12:52;;;;;;;73.65;26.23;;;3.20;99.90;;;;;;5047777;28;20454;-69
2022/01/26 05:15:21;;;;;;;66.72;25.85;;;3.20;99.90;;;;;;5048807;28;20049;-67
2022/01/26 05:17:47;;;;;;;72.18;25.77;;;3.10;99.90;;;;;;5046908;28;20080;-69
2022/01/26 05:20:13;;;;;;;72.55;23.27;;;3.10;99.90;;;;;;5048781;28;20079;-69
2022/01/26 05:22:41;;;;;;;62.55;24.65;;;3.20;99.90;;;;;;5047790;28;20037;-67
2022/01/26 05:25:07;;;;;;;63.30;24.00;;;3.30;99.90;;;;;;5049283;28;20041;-69
2022/01/26 05:27:33;;;;;;;60.22;21.48;;;3.30;99.90;;;;;;5049700;28;20043;-68
2022/01/26 05:29:59;;;;;;;62.60;23.23;;;3.30;99.90;;;;;;5049279;28;20057;-69
2022/01/26 05:32:25;;;;;;;62.22;22.73;;;3.30;99.90;;;;;;5033390;28;20084;-70
2022/01/26 05:34:51;;;;;;;66.90;24.23;;;3.30;99.90;;;;;;5046430;28;20438;-69
2022/01/26 05:37:16;;;;;;;60.85;25.77;;;3.30;99.90;;;;;;5048993;28;20041;-69
2022/01/26 05:39:42;;;;;;;76.82;25.42;;;3.20;99.90;;;;;;5047497;28;20436;-69
2022/01/26 05:42:08;;;;;;;65.43;24.05;;;3.20;99.90;;;;;;5047833;28;20067;-69
2022/01/26 05:44:34;;;;;;;58.35;23.60;;;3.20;99.90;;;;;;5047806;28;20041;-69
2022/01/26 05:47:00;;;;;;;60.33;24.27;;;3.20;99.90;;;;;;5048325;28;20265;-69
2022/01/26 05:49:26;;;;;;;59.05;25.33;;;3.20;99.90;;;;;;5047008;28;20218;-69
2022/01/26 05:51:52;;;;;;;56.30;22.33;;;3.20;99.90;;;;;;5046423;28;20037;-69
2022/01/26 05:54:19;;;;;;;61.13;24.17;;;3.20;99.90;;;;;;5048567;28;20097;-69
2022/01/26 05:56:47;;;;;;;52.83;19.95;;;3.20;99.90;;;;;;5047286;28;20064;-68
2022/01/26 05:59:20;;;;;;;61.53;22.02;;;3.20;99.90;;;;;;5041048;28;20053;-69
2022/01/26 06:01:47;;;;;;;63.17;22.75;;;3.30;99.90;;;;;;5048342;28;20037;-69
2022/01/26 06:04:12;;;;;;;58.50;21.88;;;3.20;99.90;;;;;;5045756;28;20037;-69
2022/01/26 06:06:38;;;;;;;55.33;19.38;;;3.20;99.90;;;;;;5062666;28;20039;-69
2022/01/26 06:09:04;;;;;;;58.28;23.40;;;3.20;99.90;;;;;;5046963;28;20122;-69
2022/01/26 06:11:29;;;;;;;60.85;23.98;;;3.20;99.90;;;;;;5048113;28;20083;-68
2022/01/26 06:13:55;;;;;;;63.08;23.38;;;3.20;99.90;;;;;;5047126;28;20111;-69
2022/01/26 06:16:22;;;;;;;62.72;23.27;;;3.10;99.90;;;;;;5050045;28;20070;-69
2022/01/26 06:18:47;;;;;;;56.35;21.63;;;3.00;99.90;;;;;;5045682;28;20449;-69
2022/01/26 06:21:13;;;;;;;70.20;25.90;;;3.10;99.90;;;;;;5047640;28;20085;-69
2022/01/26 06:23:40;;;;;;;69.97;25.27;;;3.10;99.90;;;;;;5046455;28;20046;-69
2022/01/26 06:26:06;;;;;;;60.03;22.35;;;3.10;99.90;;;;;;5047066;28;20133;-70
2022/01/26 06:28:32;;;;;;;60.80;24.90;;;3.10;99.90;;;;;;5048004;28;20436;-69
2022/01/26 06:31:02;;;;;;;60.97;24.50;;;3.10;99.90;;;;;;5046994;28;20052;-69
2022/01/26 06:33:28;;;;;;;66.18;23.75;;;3.10;99.90;;;;;;5045819;28;20334;-69
2022/01/26 06:35:56;;;;;;;62.58;25.05;;;3.20;99.90;;;;;;5046246;28;20052;-69
2022/01/26 06:38:24;;;;;;;63.30;23.65;;;3.20;99.90;;;;;;5046292;28;20049;-69
2022/01/26 06:40:51;;;;;;;68.70;24.35;;;3.20;99.90;;;;;;5047166;28;20091;-69
2022/01/26 06:43:17;;;;;;;59.42;21.15;;;3.20;99.90;;;;;;5047259;28;20621;-69
2022/01/26 06:45:53;;;;;;;68.45;24.73;;;3.30;99.90;;;;;;5045820;28;20080;-69
2022/01/26 06:51:00;;;;;;;65.55;24.63;;;3.20;99.90;;;;;;5047008;28;20459;-69
2022/01/26 06:53:26;;;;;;;59.85;23.50;;;3.20;99.90;;;;;;5046710;28;20037;-69
2022/01/26 06:55:52;;;;;;;64.65;25.45;;;3.20;99.90;;;;;;5046227;28;20072;-69
2022/01/26 06:58:18;;;;;;;58.63;22.38;;;3.20;99.90;;;;;;5046306;28;20099;-69
2022/01/26 07:00:43;;;;;;;66.60;25.13;;;3.20;99.90;;;;;;5046381;28;20052;-69
2022/01/26 07:03:10;;;;;;;59.20;24.77;;;3.20;99.90;;;;;;5044833;28;20516;-69
2022/01/26 07:05:35;;;;;;;64.43;24.83;;;3.20;99.90;;;;;;5047566;28;20712;-69
2022/01/26 07:08:02;;;;;;;70.53;26.50;;;4.00;99.90;;;;;;5045693;28;20160;-69
2022/01/26 07:10:28;;;;;;;70.28;25.55;;;3.20;99.90;;;;;;5047658;28;20041;-69
2022/01/26 07:12:54;;;;;;;65.10;24.92;;;3.20;99.90;;;;;;5044615;28;20155;-69
2022/01/26 07:23:23;;;;;;;70.22;27.85;;;3.30;99.90;;;;;;5046348;28;20045;-66
2022/01/26 07:25:49;;;;;;;72.18;27.85;;;3.30;99.90;;;;;;5047519;28;20132;-66
2022/01/26 07:28:14;;;;;;;71.80;27.88;;;3.30;99.90;;;;;;5047822;28;20041;-66
2022/01/26 07:30:40;;;;;;;72.25;28.15;;;3.20;99.90;;;;;;5047121;28;20044;-66
2022/01/26 07:33:06;;;;;;;73.20;27.27;;;3.30;99.90;;;;;;5044536;28;20476;-66
2022/01/26 07:35:33;;;;;;;73.20;28.05;;;3.20;99.90;;;;;;5040682;28;20088;-65
2022/01/26 07:38:01;;;;;;;75.03;28.90;;;3.20;99.90;;;;;;5049014;28;20466;-67
2022/01/26 07:40:28;;;;;;;72.93;27.67;;;3.30;99.90;;;;;;5050910;28;20041;-67
2022/01/26 07:42:53;;;;;;;76.78;28.65;;;3.40;99.90;;;;;;5048137;28;20529;-67
2022/01/26 07:45:20;;;;;;;71.80;29.30;;;3.30;99.90;;;;;;5050529;28;20041;-67
2022/01/26 07:47:46;;;;;;;68.57;25.80;;;4.20;99.90;;;;;;5049257;28;20041;-67
2022/01/26 07:50:14;;;;;;;67.75;28.25;;;3.30;99.90;;;;;;5050238;28;20040;-67
2022/01/26 07:52:41;;;;;;;75.40;28.00;;;3.30;99.90;;;;;;5047988;28;20076;-67
2022/01/26 07:55:11;;;;;;;75.45;28.80;;;3.30;99.90;;;;;;5049892;28;20132;-65
2022/01/26 07:57:36;;;;;;;78.60;30.05;;;3.40;99.90;;;;;;5047795;28;20095;-66
2022/01/26 08:00:05;;;;;;;75.47;29.40;;;3.30;99.90;;;;;;5049614;28;20052;-66
2022/01/26 08:02:30;;;;;;;74.40;29.42;;;3.40;99.90;;;;;;5048841;28;20120;-66
2022/01/26 08:04:57;;;;;;;80.22;30.50;;;3.40;99.90;;;;;;5048278;28;20127;-66
2022/01/26 08:07:23;;;;;;;74.05;30.75;;;3.40;99.90;;;;;;5050381;28;20044;-65
2022/01/26 08:09:48;;;;;;;75.35;28.98;;;3.40;99.90;;;;;;5049035;28;20426;-65
2022/01/26 08:12:15;;;;;;;72.68;30.77;;;3.40;99.90;;;;;;5049002;28;20378;-65
2022/01/26 08:14:42;;;;;;;76.55;30.77;;;3.40;99.90;;;;;;5049064;28;20374;-66
2022/01/26 08:17:08;;;;;;;81.95;32.63;;;3.50;99.90;;;;;;5049489;28;20044;-66
2022/01/26 08:19:34;;;;;;;78.45;29.80;;;3.50;99.90;;;;;;5047805;28;20099;-66
2022/01/26 08:22:01;;;;;;;86.53;33.38;;;3.50;99.90;;;;;;5049915;28;20131;-66
2022/01/26 08:24:28;;;;;;;82.57;32.00;;;3.60;99.90;;;;;;5049083;28;20110;-66
2022/01/26 08:26:58;;;;;;;80.00;31.52;;;3.60;99.90;;;;;;5031529;28;20060;-67
2022/01/26 08:32:18;;;;;;;81.15;32.50;;;3.70;99.90;;;;;;5037004;28;20127;-67
2022/01/26 08:34:44;;;;;;;80.00;31.92;;;3.60;99.90;;;;;;5048247;28;20124;-67
2022/01/26 08:37:10;;;;;;;84.10;31.38;;;3.60;99.90;;;;;;5049260;28;20082;-66
2022/01/26 08:39:36;;;;;;;86.28;34.65;;;3.70;99.90;;;;;;5049045;28;20045;-66
2022/01/26 08:42:05;;;;;;;83.80;34.38;;;3.70;99.90;;;;;;5050118;28;20041;-66
2022/01/26 08:44:32;;;;;;;86.97;34.13;;;3.60;99.90;;;;;;5048023;28;20049;-66
2022/01/26 08:46:58;;;;;;;87.75;34.38;;;3.70;99.90;;;;;;5048158;28;20401;-66
2022/01/26 08:49:27;;;;;;;88.82;35.70;;;3.80;99.90;;;;;;5047700;28;20048;-66
2022/01/26 08:51:54;;;;;;;89.70;35.58;;;3.70;99.90;;;;;;5048667;28;20052;-67
2022/01/26 08:54:22;;;;;;;88.88;33.90;;;3.70;99.90;;;;;;5032998;28;20046;-66
2022/01/26 08:56:51;;;;;;;87.00;34.63;;;3.70;99.90;;;;;;5027308;28;20069;-66
2022/01/26 08:59:18;;;;;;;89.03;36.25;;;3.70;99.90;;;;;;5029627;28;20060;-67
2022/01/26 09:01:44;;;;;;;85.97;34.08;;;3.80;99.90;;;;;;5029559;28;20037;-66
2022/01/26 09:04:09;;;;;;;84.97;35.38;;;5.40;99.90;;;;;;5030949;28;20053;-66
2022/01/26 09:06:39;;;;;;;90.38;35.45;;;3.90;99.90;;;;;;5048577;28;20037;-67
2022/01/26 09:09:07;;;;;;;88.30;34.45;;;3.80;99.90;;;;;;5049086;28;20048;-66
2022/01/26 09:11:36;;;;;;;84.88;35.08;;;3.80;99.90;;;;;;5045918;28;20401;-66
2022/01/26 09:14:08;;;;;;;83.68;35.28;;;3.90;99.90;;;;;;5048417;28;20124;-66
2022/01/26 09:16:35;;;;;;;88.75;34.38;;;3.90;99.90;;;;;;5040523;28;20049;-67
2022/01/26 09:19:08;;;;;;;88.75;34.90;;;4.00;99.90;;;;;;5047301;28;20041;-66
2022/01/26 09:21:35;;;;;;;83.43;35.92;;;3.90;99.90;;;;;;5049253;28;20048;-68
2022/01/26 09:24:01;;;;;;;91.80;36.67;;;3.90;99.90;;;;;;5047482;28;20041;-66
2022/01/26 09:26:26;;;;;;;80.80;34.13;;;3.90;99.90;;;;;;5048316;28;20037;-66
2022/01/26 09:28:52;;;;;;;90.97;36.90;;;3.90;99.90;;;;;;5048267;28;20122;-66
2022/01/26 09:31:17;;;;;;;87.45;35.78;;;3.90;99.90;;;;;;5048871;28;20112;-66
2022/01/26 09:33:43;;;;;;;88.82;34.65;;;4.00;99.90;;;;;;5047199;28;20373;-66
2022/01/26 09:36:09;;;;;;;82.57;34.83;;;4.00;99.90;;;;;;5048386;28;20436;-66
2022/01/26 09:38:34;;;;;;;78.93;34.97;;;4.00;99.90;;;;;;5047440;28;20076;-68
2022/01/26 09:41:00;;;;;;;80.55;33.92;;;4.00;99.90;;;;;;5047642;28;20053;-68
2022/01/26 09:43:27;;;;;;;83.93;33.33;;;5.40;99.90;;;;;;5033296;28;20046;-66
2022/01/26 09:45:53;;;;;;;77.53;34.08;;;4.10;99.90;;;;;;5027267;28;20060;-66
2022/01/26 09:48:18;;;;;;;78.10;33.03;;;4.20;99.90;;;;;;5029713;28;20347;-65
2022/01/26 09:50:46;;;;;;;76.53;32.25;;;4.20;99.90;;;;;;5030198;28;20121;-67
2022/01/26 09:53:21;;;;;;;80.10;34.42;;;4.20;99.90;;;;;;5034003;28;20084;-67
2022/01/26 09:55:47;;;;;;;79.38;32.70;;;4.30;99.90;;;;;;5047813;28;20048;-67
2022/01/26 09:58:15;;;;;;;76.85;32.35;;;4.30;99.90;;;;;;5047071;28;20470;-67
2022/01/26 10:00:41;;;;;;;70.10;28.98;;;4.40;99.90;;;;;;5046854;28;20056;-67
2022/01/26 10:03:07;;;;;;;76.63;33.42;;;4.50;99.90;;;;;;5047134;28;20037;-67
2022/01/26 10:05:44;;;;;;;70.47;29.08;;;4.40;99.90;;;;;;5048726;28;20083;-67
2022/01/26 10:08:25;;;;;;;75.03;31.67;;;4.50;99.90;;;;;;5046834;28;20052;-67
2022/01/26 10:18:56;;;;;;;63.90;25.88;;;4.60;99.90;;;;;;5047128;28;20052;-67
2022/01/26 10:21:23;;;;;;;69.03;26.20;;;4.70;99.90;;;;;;5047858;28;20052;-67
2022/01/26 10:23:49;;;;;;;77.15;31.08;;;4.70;99.90;;;;;;5047645;28;20125;-67
2022/01/26 10:26:18;;;;;;;63.35;28.00;;;5.30;99.90;;;;;;5046242;28;20477;-67
2022/01/26 10:28:57;;;;;;;68.93;28.73;;;4.70;99.90;;;;;;5046879;28;20049;-67
2022/01/26 10:31:25;;;;;;;72.25;30.60;;;4.80;99.90;;;;;;5040597;28;20048;-67
2022/01/26 10:33:58;;;;;;;66.85;27.85;;;4.80;99.90;;;;;;5035335;28;20355;-67
2022/01/26 10:36:35;;;;;;;69.03;27.83;;;4.80;99.90;;;;;;5040580;28;20370;-67
2022/01/26 10:39:05;;;;;;;60.45;24.85;;;4.80;99.90;;;;;;5046432;28;20056;-67
2022/01/26 10:41:31;;;;;;;59.13;23.38;;;4.90;99.90;;;;;;5035834;28;20466;-67
2022/01/26 10:43:59;;;;;;;66.60;28.95;;;4.90;99.90;;;;;;5042429;28;20051;-67
2022/01/26 10:46:35;;;;;;;67.82;26.40;;;4.90;99.90;;;;;;5047931;28;20072;-67
2022/01/26 10:49:41;;;;;;;57.35;26.75;;;4.90;99.90;;;;;;5045389;28;20400;-67
2022/01/26 10:52:18;;;;;;;61.70;27.58;;;4.90;99.90;;;;;;5046810;28;20457;-67
2022/01/26 10:54:45;;;;;;;62.53;25.38;;;4.90;99.90;;;;;;5046665;28;20045;-67
2022/01/26 10:57:11;;;;;;;66.70;26.98;;;4.90;99.90;;;;;;5046064;28;20053;-67
2022/01/26 10:59:46;;;;;;;64.18;23.88;;;4.90;99.90;;;;;;5047259;28;20085;-66
2022/01/26 11:02:12;;;;;;;57.88;25.33;;;4.90;99.90;;;;;;5047371;28;20041;-67
2022/01/26 11:04:42;;;;;;;58.55;23.27;;;5.00;99.90;;;;;;5043583;28;20041;-67
2022/01/26 11:07:10;;;;;;;56.45;23.77;;;5.00;99.90;;;;;;5046338;28;20110;-67
2022/01/26 11:09:38;;;;;;;57.13;23.30;;;5.00;99.90;;;;;;5046875;28;20059;-68
2022/01/26 11:12:10;;;;;;;57.13;24.23;;;5.00;99.90;;;;;;5054591;28;20083;-67
2022/01/26 11:14:50;;;;;;;64.50;26.20;;;5.00;99.90;;;;;;5050200;28;20107;-67
2022/01/26 11:17:27;;;;;;;59.22;25.90;;;4.90;99.90;;;;;;5033528;28;20061;-67
2022/01/26 11:19:53;;;;;;;72.03;26.88;;;4.90;99.90;;;;;;5030217;28;20054;-67
2022/01/26 11:22:26;;;;;;;65.72;28.02;;;4.90;99.90;;;;;;5029202;28;20042;-67
2022/01/26 11:24:52;;;;;;;65.65;26.20;;;4.80;99.90;;;;;;5030047;28;20128;-68
2022/01/26 11:27:19;;;;;;;68.13;27.17;;;4.90;99.90;;;;;;5030100;28;20044;-68
2022/01/26 11:29:48;;;;;;;61.33;27.33;;;4.80;99.90;;;;;;5029876;28;20091;-68
2022/01/26 11:32:25;;;;;;;72.63;27.95;;;4.90;99.90;;;;;;5030642;28;20460;-67
2022/01/26 11:34:53;;;;;;;62.42;24.38;;;4.90;99.90;;;;;;5029434;28;20060;-68
2022/01/26 11:37:44;;;;;;;67.07;26.10;;;4.90;99.90;;;;;;5029696;28;20049;-68
2022/01/26 11:46:09;;;;;;;64.10;26.90;;;4.90;99.90;;;;;;5029719;28;20406;-68
2022/01/26 11:48:35;;;;;;;62.28;26.05;;;4.90;99.90;;;;;;5029014;28;20045;-68
2022/01/26 11:51:03;;;;;;;69.60;26.63;;;4.90;99.90;;;;;;5048100;28;20158;-66
2022/01/26 11:53:29;;;;;;;60.33;23.67;;;4.90;99.90;;;;;;5041855;28;20398;-68
2022/01/26 11:56:07;;;;;;;59.10;24.50;;;6.20;99.90;;;;;;5028350;28;20492;-66
2022/01/26 11:58:36;;;;;;;67.05;28.30;;;4.90;99.90;;;;;;5028950;28;20407;-67
2022/01/26 12:03:55;;;;;;;71.13;27.95;;;4.90;99.90;;;;;;5049184;28;20052;-67
2022/01/26 12:06:29;;;;;;;58.30;25.67;;;4.90;99.90;;;;;;5049438;28;20056;-67
2022/01/26 12:08:58;;;;;;;67.55;26.77;;;4.80;99.90;;;;;;5041183;28;20084;-67
2022/01/26 12:11:24;;;;;;;72.13;27.42;;;4.90;99.90;;;;;;5032965;28;20072;-67
2022/01/26 12:14:11;;;;;;;81.82;28.83;;;4.90;99.90;;;;;;5030351;28;20041;-67
2022/01/26 12:16:42;;;;;;;69.20;28.40;;;4.80;99.90;;;;;;5029197;28;20390;-69
2022/01/26 12:38:09;;;;;;;72.65;27.27;;;4.90;99.90;;;;;;5058779;28;20068;-67
2022/01/26 12:43:32;;;;;;;75.57;29.05;;;4.90;99.90;;;;;;5043550;28;20124;-67
2022/01/26 12:45:58;;;;;;;74.97;28.20;;;5.00;99.90;;;;;;5049031;28;20057;-66
2022/01/26 12:48:24;;;;;;;73.20;28.15;;;4.90;99.90;;;;;;5047209;28;20045;-67
2022/01/26 12:50:50;;;;;;;68.78;27.73;;;4.90;99.90;;;;;;5047978;28;20454;-66
2022/01/26 12:53:25;;;;;;;61.42;24.75;;;5.00;99.90;;;;;;5048189;28;20128;-67
2022/01/26 12:56:00;;;;;;;66.60;28.03;;;5.00;99.90;;;;;;5046414;28;20120;-66
2022/01/26 12:58:35;;;;;;;64.47;27.33;;;5.00;99.90;;;;;;5045441;28;20045;-66
2022/01/26 13:01:06;;;;;;;62.30;26.23;;;5.10;99.90;;;;;;5045127;28;20048;-66
2022/01/26 13:03:34;;;;;;;65.18;25.77;;;5.10;99.90;;;;;;5046747;28;20076;-66
2022/01/26 13:06:13;;;;;;;67.05;25.83;;;5.10;99.90;;;;;;5047127;28;20041;-67
2022/01/26 13:08:48;;;;;;;71.38;27.48;;;5.10;99.90;;;;;;5063343;28;20099;-66
2022/01/26 13:11:25;;;;;;;67.05;27.08;;;5.10;99.90;;;;;;5047372;28;20056;-67
2022/01/26 13:14:21;;;;;;;65.57;27.95;;;5.10;99.90;;;;;;5046634;28;20052;-67
2022/01/26 13:39:49;;;;;;;63.60;25.17;;;5.40;99.90;;;;;;5027513;28;20041;-67
2022/01/26 13:47:59;;;;;;;64.05;26.25;;;5.40;99.90;;;;;;5028085;28;20111;-67
2022/01/26 13:50:17;;;;;;;57.65;24.45;;;5.40;99.90;;;;;;5026772;28;20049;-67
2022/01/26 13:53:05;;;;;;;57.90;24.38;;;5.70;99.90;;;;;;5027574;28;20142;-66
2022/01/26 14:00:43;;;;;;;56.65;23.73;;;5.50;99.90;;;;;;5027782;28;20045;-67
2022/01/26 14:03:12;;;;;;;45.60;20.77;;;5.50;99.90;;;;;;5024910;28;20053;-67
2022/01/26 14:05:37;;;;;;;59.53;24.40;;;5.60;99.90;;;;;;5027454;28;20049;-67
2022/01/26 14:08:03;;;;;;;46.65;20.55;;;5.60;99.90;;;;;;5028018;28;20343;-67
2022/01/26 14:10:30;;;;;;;55.08;24.30;;;5.70;99.90;;;;;;5028471;28;20414;-66
2022/01/26 14:12:56;;;;;;;51.92;22.20;;;5.60;99.90;;;;;;5026801;28;20053;-67
2022/01/26 14:15:34;;;;;;;46.30;22.98;;;5.60;99.90;;;;;;5027423;28;20183;-67
2022/01/26 14:20:52;;;;;;;54.17;22.88;;;5.70;99.90;;;;;;5028834;28;20046;-67
2022/01/26 14:23:43;;;;;;;53.47;20.85;;;5.70;99.90;;;;;;5027795;28;20088;-67
2022/01/26 14:26:08;;;;;;;49.92;22.73;;;5.70;99.90;;;;;;5028168;28;20498;-68
2022/01/26 14:28:36;;;;;;;53.40;22.85;;;5.80;99.90;;;;;;5027195;28;20068;-68
2022/01/26 14:36:42;;;;;;;52.90;21.83;;;5.80;99.90;;;;;;5047595;28;20404;-67
2022/01/26 15:34:36;;;;;;;53.42;21.30;;;5.90;99.90;;;;;;5049503;28;20049;-67
2022/01/26 15:42:52;;;;;;;48.75;20.63;;;5.90;99.90;;;;;;5031096;28;20085;-66
2022/01/26 15:50:47;;;;;;;55.47;23.30;;;5.90;99.90;;;;;;5051383;28;20044;-67
2022/01/26 15:53:26;;;;;;;57.15;24.10;;;5.90;99.90;;;;;;5049250;28;20045;-67
2022/01/26 15:59:06;;;;;;;51.47;22.40;;;5.90;99.90;;;;;;5049108;28;20056;-67
2022/01/26 16:04:24;;;;;;;58.65;23.17;;;5.80;99.90;;;;;;5049488;28;20486;-66
2022/01/26 16:12:42;;;;;;;50.42;22.55;;;5.90;99.90;;;;;;5039766;28;20128;-66
2022/01/26 16:20:35;;;;;;;56.78;23.40;;;5.90;99.90;;;;;;5048080;28;20064;-66
2022/01/26 16:39:27;;;;;;;47.60;20.13;;;5.80;99.90;;;;;;5050134;28;20064;-66
2022/01/26 18:15:20;;;;;;;41.28;18.08;;;6.10;99.90;;;;;;5047260;28;20131;-66
2022/01/26 18:17:54;;;;;;;46.27;20.20;;;6.10;99.90;;;;;;5046452;28;20387;-66
2022/01/26 18:25:56;;;;;;;38.47;16.42;;;6.20;99.90;;;;;;5035269;28;20590;-66
2022/01/26 18:39:45;;;;;;;42.05;19.20;;;6.30;99.90;;;;;;5027870;28;20085;-66
2022/01/26 18:50:15;;;;;;;40.03;15.98;;;6.40;99.90;;;;;;5063013;28;20169;-67
2022/01/26 18:52:40;;;;;;;40.22;17.02;;;6.40;99.90;;;;;;5047175;28;20116;-67
2022/01/26 18:55:07;;;;;;;36.17;16.20;;;6.40;99.90;;;;;;5050068;28;20040;-67
2022/01/26 18:57:32;;;;;;;31.02;15.10;;;6.50;99.90;;;;;;5052291;28;20049;-67
2022/01/26 18:59:58;;;;;;;35.50;15.82;;;6.50;99.90;;;;;;5045808;28;20049;-66
2022/01/26 19:02:25;;;;;;;32.22;15.43;;;6.50;99.90;;;;;;5046169;28;20410;-67
2022/01/26 19:04:51;;;;;;;35.35;16.35;;;6.50;99.90;;;;;;5045656;28;20102;-67
2022/01/26 19:07:17;;;;;;;34.13;15.15;;;6.50;99.90;;;;;;5029771;28;20053;-67
2022/01/26 19:09:46;;;;;;;36.47;16.02;;;6.50;99.90;;;;;;5046716;28;20049;-67
2022/01/26 19:12:15;;;;;;;38.63;17.48;;;6.50;99.90;;;;;;5046675;28;20082;-67
2022/01/26 19:14:46;;;;;;;33.60;17.30;;;6.50;99.90;;;;;;5045449;28;20048;-67